Time;durP1;ratioP1;P1;durP2;ratioP2;P2;SDS_P1;SDS_P2;PMS_P1;PMS_P2;Temp;Humidity;BMP_temperature;BMP_pressure;BME280_temperature;BME280_humidity;BME280_pressure;Samples;Min_cycle;Max_cycle;Signal;HPM_P1;HPM_P2
2021/09/27 04:10:49;;;;;;;35.47;32.17;;;16.40;99.90;;;;;;5665103;23;20506;-75
2021/09/27 04:13:27;;;;;;;36.17;32.97;;;16.30;99.90;;;;;;4978175;28;21163;-75
2021/09/27 04:16:03;;;;;;;37.67;34.60;;;16.30;99.90;;;;;;4972331;28;20447;-74
2021/09/27 04:18:39;;;;;;;35.13;32.33;;;16.40;99.90;;;;;;4971311;28;21008;-74
2021/09/27 04:21:13;;;;;;;33.40;30.43;;;16.30;99.90;;;;;;4971876;28;20938;-75
2021/09/27 04:23:51;;;;;;;32.83;30.27;;;16.30;99.90;;;;;;4971692;28;20462;-75
2021/09/27 04:26:29;;;;;;;37.17;34.00;;;16.30;99.90;;;;;;4971233;28;20499;-75
2021/09/27 04:29:10;;;;;;;36.33;33.10;;;16.20;99.90;;;;;;4971645;28;20914;-75
2021/09/27 04:31:45;;;;;;;34.53;31.40;;;16.20;99.90;;;;;;4971726;28;20463;-75
2021/09/27 04:34:40;;;;;;;34.30;31.30;;;16.20;99.90;;;;;;4971306;28;20975;-75
2021/09/27 04:37:07;;;;;;;40.43;36.83;;;16.10;99.90;;;;;;4972041;28;20440;-75
2021/09/27 04:39:39;;;;;;;38.53;34.70;;;16.10;99.90;;;;;;4971672;28;20451;-75
2021/09/27 04:42:32;;;;;;;36.30;33.07;;;16.00;99.90;;;;;;4971681;28;20498;-76
2021/09/27 04:45:12;;;;;;;35.90;33.03;;;15.90;99.90;;;;;;4971518;28;20452;-74
2021/09/27 04:47:49;;;;;;;35.40;32.40;;;15.80;99.90;;;;;;4971496;28;20443;-74
2021/09/27 04:50:31;;;;;;;37.00;33.53;;;15.80;99.90;;;;;;4971317;28;20443;-75
2021/09/27 04:53:16;;;;;;;36.83;33.60;;;15.80;99.90;;;;;;4971392;28;20506;-75
2021/09/27 04:56:04;;;;;;;38.53;35.23;;;15.80;99.90;;;;;;4971126;28;20862;-75
2021/09/27 04:58:53;;;;;;;35.90;32.97;;;15.80;99.90;;;;;;4971251;28;20451;-74
2021/09/27 05:01:39;;;;;;;34.63;31.90;;;15.70;99.90;;;;;;4971297;28;20680;-74
2021/09/27 05:04:22;;;;;;;36.00;32.90;;;15.60;99.90;;;;;;4971369;28;20458;-75
2021/09/27 05:07:11;;;;;;;38.73;35.63;;;15.60;99.90;;;;;;4971470;28;20455;-74
2021/09/27 05:09:54;;;;;;;37.63;34.30;;;15.60;99.90;;;;;;4971245;28;20475;-75
2021/09/27 05:12:53;;;;;;;35.47;32.37;;;15.50;99.90;;;;;;4971461;28;20436;-75
2021/09/27 05:15:42;;;;;;;36.33;33.10;;;15.50;99.90;;;;;;4971340;28;20942;-75
2021/09/27 05:18:36;;;;;;;38.60;34.90;;;15.50;99.90;;;;;;4975840;28;20470;-75
2021/09/27 05:21:29;;;;;;;39.17;35.60;;;15.50;99.90;;;;;;4986301;28;20493;-75
2021/09/27 05:24:07;;;;;;;38.03;34.83;;;15.50;99.90;;;;;;4991008;28;20513;-74
2021/09/27 05:26:59;;;;;;;35.00;31.97;;;15.60;99.90;;;;;;4994158;28;20446;-75
2021/09/27 05:29:43;;;;;;;40.33;36.30;;;15.60;99.90;;;;;;4994083;28;20843;-75
2021/09/27 05:32:25;;;;;;;38.00;34.77;;;15.60;99.90;;;;;;4993516;28;20505;-75
2021/09/27 05:35:09;;;;;;;36.73;33.53;;;15.60;99.90;;;;;;4993973;28;20967;-76
2021/09/27 05:37:46;;;;;;;39.30;35.80;;;15.70;99.90;;;;;;4994480;28;20438;-76
2021/09/27 05:40:25;;;;;;;38.27;35.07;;;15.70;99.90;;;;;;4993589;28;20489;-76
2021/09/27 05:43:13;;;;;;;36.37;32.90;;;15.70;99.90;;;;;;4993923;28;20524;-75
2021/09/27 05:45:50;;;;;;;35.83;32.93;;;15.70;99.90;;;;;;4993362;28;20815;-75
2021/09/27 05:48:28;;;;;;;40.10;36.37;;;15.80;99.90;;;;;;4993693;28;20490;-75
2021/09/27 05:51:01;;;;;;;44.10;40.10;;;15.80;99.90;;;;;;4993715;28;20853;-76
2021/09/27 05:53:39;;;;;;;41.03;37.10;;;15.80;99.90;;;;;;4993314;28;20454;-75
2021/09/27 05:56:13;;;;;;;38.17;34.57;;;15.80;99.90;;;;;;4993657;28;20545;-75
2021/09/27 05:58:47;;;;;;;40.30;36.47;;;15.80;99.90;;;;;;4993243;28;20454;-74
2021/09/27 06:01:22;;;;;;;44.80;40.77;;;15.80;99.90;;;;;;4993158;28;20485;-75
2021/09/27 06:04:06;;;;;;;49.60;45.20;;;15.90;99.90;;;;;;4993703;28;20462;-75
2021/09/27 06:06:38;;;;;;;43.80;39.50;;;16.10;99.90;;;;;;4993280;28;20550;-75
2021/09/27 06:09:19;;;;;;;42.43;38.40;;;16.30;99.90;;;;;;4993214;28;20888;-77
2021/09/27 06:11:55;;;;;;;34.37;31.27;;;16.60;99.90;;;;;;4993151;28;20517;-77
2021/09/27 06:14:22;;;;;;;34.13;30.97;;;17.00;99.90;;;;;;4993480;28;20446;-76
2021/09/27 06:17:00;;;;;;;30.70;27.63;;;17.10;99.90;;;;;;4993170;28;20450;-75
2021/09/27 06:19:41;;;;;;;30.70;28.30;;;17.40;99.90;;;;;;4986559;28;20470;-75
2021/09/27 06:22:20;;;;;;;31.13;28.50;;;17.50;99.90;;;;;;4977382;28;20491;-75
2021/09/27 06:24:57;;;;;;;30.20;28.00;;;17.70;99.90;;;;;;4973420;28;20448;-74
2021/09/27 06:27:37;;;;;;;28.33;26.03;;;18.00;99.90;;;;;;4973783;28;20483;-75
2021/09/27 06:30:11;;;;;;;28.83;26.63;;;18.30;99.90;;;;;;4973829;28;20458;-75
2021/09/27 06:32:50;;;;;;;27.13;24.90;;;18.50;99.90;;;;;;4973542;28;20455;-75
2021/09/27 06:35:21;;;;;;;28.77;26.57;;;18.80;99.90;;;;;;4973108;28;20452;-75
2021/09/27 06:37:48;;;;;;;27.20;25.20;;;19.10;99.90;;;;;;4972740;28;20458;-76
2021/09/27 06:40:16;;;;;;;27.33;25.43;;;19.40;99.90;;;;;;4972962;28;20845;-75
2021/09/27 06:42:43;;;;;;;25.87;24.17;;;19.80;99.90;;;;;;4972917;28;20495;-75
2021/09/27 06:45:11;;;;;;;25.87;24.07;;;20.00;99.90;;;;;;4972892;28;20452;-75
2021/09/27 06:47:38;;;;;;;26.30;24.30;;;19.90;99.90;;;;;;4973516;28;20819;-75
2021/09/27 06:50:06;;;;;;;26.83;24.97;;;19.60;99.90;;;;;;4973089;28;20455;-73
2021/09/27 06:52:35;;;;;;;27.30;25.20;;;19.50;99.90;;;;;;4973093;28;20808;-74
2021/09/27 06:55:02;;;;;;;27.93;24.97;;;19.40;99.90;;;;;;4973169;28;20522;-74
2021/09/27 06:57:28;;;;;;;24.87;23.27;;;19.50;99.90;;;;;;4972663;28;20460;-74
2021/09/27 06:59:55;;;;;;;25.80;24.10;;;19.20;99.90;;;;;;4972591;28;20456;-75
2021/09/27 07:02:22;;;;;;;27.33;25.20;;;19.00;99.90;;;;;;4972696;28;20830;-75
2021/09/27 07:04:48;;;;;;;25.63;23.67;;;18.90;99.90;;;;;;4972566;28;20456;-74
2021/09/27 07:07:16;;;;;;;26.67;24.73;;;18.90;99.90;;;;;;4972357;28;20452;-75
2021/09/27 07:09:44;;;;;;;26.97;24.97;;;19.10;99.90;;;;;;4972081;28;20478;-76
2021/09/27 07:12:11;;;;;;;24.63;23.07;;;19.60;99.90;;;;;;4972126;28;20440;-75
2021/09/27 07:14:39;;;;;;;24.90;23.13;;;20.00;99.90;;;;;;4972515;28;20456;-75
2021/09/27 07:17:06;;;;;;;25.27;23.60;;;20.50;99.90;;;;;;4972626;28;20452;-75
2021/09/27 07:19:33;;;;;;;27.27;25.07;;;20.50;99.90;;;;;;4972254;28;20448;-75
2021/09/27 07:21:59;;;;;;;24.17;22.40;;;20.40;99.90;;;;;;4972110;28;20499;-74
2021/09/27 07:24:26;;;;;;;23.17;21.63;;;20.60;99.90;;;;;;4972053;28;20448;-75
2021/09/27 07:26:54;;;;;;;23.87;22.10;;;20.80;99.90;;;;;;4972543;28;20455;-75
2021/09/27 07:29:21;;;;;;;23.80;22.40;;;21.10;99.90;;;;;;4972308;28;20456;-75
2021/09/27 07:31:48;;;;;;;24.53;23.03;;;21.00;99.90;;;;;;4971943;28;20456;-75
2021/09/27 07:34:15;;;;;;;21.70;20.40;;;20.90;99.90;;;;;;4972122;28;20482;-75
2021/09/27 07:36:42;;;;;;;23.93;22.33;;;21.30;99.90;;;;;;4972619;28;20507;-75
2021/09/27 07:39:09;;;;;;;22.37;21.07;;;21.80;99.90;;;;;;4972615;28;20462;-75
2021/09/27 07:41:36;;;;;;;24.53;22.93;;;22.30;99.90;;;;;;4972629;28;20555;-76
2021/09/27 07:44:05;;;;;;;22.73;21.10;;;22.60;99.90;;;;;;4972442;28;20494;-75
2021/09/27 07:46:32;;;;;;;24.07;22.43;;;22.90;99.90;;;;;;4972320;28;20452;-75
2021/09/27 07:48:59;;;;;;;22.97;21.37;;;23.20;99.90;;;;;;4971509;28;20456;-75
2021/09/27 07:51:27;;;;;;;22.67;21.27;;;23.40;99.90;;;;;;4972358;28;20550;-75
2021/09/27 07:53:54;;;;;;;24.30;22.43;;;23.60;99.90;;;;;;4972270;28;20856;-74
2021/09/27 07:56:21;;;;;;;23.30;21.53;;;23.40;99.90;;;;;;4972369;28;20812;-74
2021/09/27 07:58:48;;;;;;;23.60;22.20;;;23.60;99.90;;;;;;4972059;28;20451;-75
2021/09/27 08:01:16;;;;;;;21.17;19.77;;;24.20;99.90;;;;;;4972183;28;20483;-75
2021/09/27 08:03:43;;;;;;;22.63;21.03;;;24.30;99.90;;;;;;4971788;28;20974;-75
2021/09/27 08:06:12;;;;;;;22.57;21.23;;;24.10;99.90;;;;;;4971983;28;20652;-74
2021/09/27 08:08:39;;;;;;;23.13;21.63;;;24.40;99.90;;;;;;4971954;28;20883;-76
2021/09/27 08:11:06;;;;;;;21.60;20.20;;;24.10;99.90;;;;;;4972030;28;20479;-75
2021/09/27 08:13:32;;;;;;;22.63;21.37;;;24.20;99.90;;;;;;4971938;28;20452;-75
2021/09/27 08:15:59;;;;;;;22.07;20.73;;;24.00;99.90;;;;;;4972012;28;20511;-74
2021/09/27 08:18:27;;;;;;;24.30;22.63;;;23.90;99.90;;;;;;4971897;28;20452;-74
2021/09/27 08:20:56;;;;;;;23.03;21.53;;;24.00;99.90;;;;;;4971981;28;20451;-75
2021/09/27 08:23:24;;;;;;;21.40;19.80;;;23.90;99.90;;;;;;4972105;28;20448;-75
2021/09/27 08:25:52;;;;;;;21.80;20.50;;;24.20;99.90;;;;;;4972055;28;20451;-75
2021/09/27 08:28:20;;;;;;;22.17;20.73;;;24.60;99.90;;;;;;4972067;28;20860;-75
2021/09/27 08:30:50;;;;;;;22.63;21.23;;;25.00;99.90;;;;;;4971903;28;20451;-75
2021/09/27 08:33:19;;;;;;;21.53;20.23;;;25.30;99.90;;;;;;4972070;28;20942;-75
2021/09/27 08:35:48;;;;;;;20.30;18.80;;;25.60;99.90;;;;;;4971962;28;20451;-75
2021/09/27 08:38:16;;;;;;;20.00;18.87;;;25.50;99.90;;;;;;4971806;28;20447;-75
2021/09/27 08:40:53;;;;;;;21.27;19.87;;;25.50;99.90;;;;;;4971906;28;20487;-75
2021/09/27 08:43:27;;;;;;;22.60;21.20;;;25.80;99.90;;;;;;4972053;28;20520;-75
2021/09/27 08:45:58;;;;;;;20.33;18.93;;;25.60;99.90;;;;;;4971982;28;20961;-76
2021/09/27 08:48:32;;;;;;;21.80;20.30;;;25.80;99.40;;;;;;4971759;28;20892;-76
2021/09/27 08:51:00;;;;;;;20.73;19.60;;;26.30;99.00;;;;;;4971613;28;20460;-76
2021/09/27 08:53:31;;;;;;;18.30;17.30;;;26.90;97.80;;;;;;4971558;28;20447;-74
2021/09/27 08:56:02;;;;;;;19.17;17.80;;;27.30;95.90;;;;;;4971563;28;20452;-74
2021/09/27 08:58:36;;;;;;;18.50;17.30;;;27.10;96.20;;;;;;4971624;28;20502;-75
2021/09/27 09:01:07;;;;;;;17.80;16.70;;;26.80;96.20;;;;;;4975304;28;20514;-75
2021/09/27 09:03:44;;;;;;;16.70;15.40;;;26.80;95.70;;;;;;4979064;28;20474;-75
2021/09/27 09:06:18;;;;;;;18.53;17.63;;;27.30;94.90;;;;;;4989133;28;20449;-76
2021/09/27 09:08:46;;;;;;;18.27;17.27;;;28.90;92.80;;;;;;4976845;28;20467;-75
2021/09/27 09:11:22;;;;;;;18.57;17.07;;;29.30;91.70;;;;;;4978095;28;20474;-75
2021/09/27 09:13:56;;;;;;;16.30;15.43;;;28.80;92.10;;;;;;4994582;28;20438;-75
2021/09/27 09:16:26;;;;;;;15.60;14.77;;;29.20;90.40;;;;;;4994522;28;20458;-75
2021/09/27 09:18:57;;;;;;;15.73;15.00;;;29.40;88.70;;;;;;4994664;28;20458;-75
2021/09/27 09:21:32;;;;;;;14.07;13.10;;;29.90;86.80;;;;;;4978014;28;20501;-75
2021/09/27 09:24:04;;;;;;;16.73;16.03;;;30.60;84.50;;;;;;4974999;28;20463;-74
2021/09/27 09:26:34;;;;;;;16.60;16.00;;;31.40;81.20;;;;;;4975163;28;20458;-75
2021/09/27 09:29:02;;;;;;;16.23;15.50;;;31.70;79.30;;;;;;4974924;28;20471;-75
2021/09/27 09:31:34;;;;;;;18.03;17.17;;;32.60;76.90;;;;;;4974717;28;20546;-74
2021/09/27 09:34:05;;;;;;;17.03;16.33;;;33.70;73.30;;;;;;4974824;28;20562;-73
2021/09/27 09:36:41;;;;;;;16.03;15.43;;;33.00;73.30;;;;;;4975612;28;20466;-75
2021/09/27 09:39:14;;;;;;;16.50;15.80;;;33.10;72.80;;;;;;4994259;28;21023;-76
2021/09/27 09:41:45;;;;;;;16.00;15.30;;;33.10;71.00;;;;;;4994220;28;20505;-75
2021/09/27 09:44:22;;;;;;;15.80;15.13;;;33.20;71.20;;;;;;5005606;28;20453;-76
2021/09/27 09:46:59;;;;;;;15.87;15.17;;;32.50;71.30;;;;;;5013782;28;20446;-76
2021/09/27 09:49:26;;;;;;;14.50;14.00;;;31.70;73.70;;;;;;5012355;28;20450;-76
2021/09/27 09:52:01;;;;;;;15.40;14.80;;;32.30;71.70;;;;;;5013457;28;20504;-75
2021/09/27 09:54:30;;;;;;;15.87;15.27;;;33.10;69.10;;;;;;5013516;28;20560;-75
2021/09/27 09:57:06;;;;;;;14.83;14.23;;;32.50;70.50;;;;;;5013329;28;20458;-75
2021/09/27 09:59:35;;;;;;;15.63;15.03;;;33.70;65.60;;;;;;4986176;28;20467;-74
2021/09/27 10:02:07;;;;;;;16.57;15.90;;;34.10;64.50;;;;;;4974147;28;20499;-74
2021/09/27 10:04:39;;;;;;;16.60;15.90;;;34.20;63.70;;;;;;4974374;28;20544;-74
2021/09/27 10:07:13;;;;;;;16.53;15.87;;;34.70;61.80;;;;;;4974394;28;20448;-75
2021/09/27 10:09:55;;;;;;;16.63;15.73;;;34.80;61.10;;;;;;4973897;28;20475;-75
2021/09/27 10:12:45;;;;;;;15.77;15.07;;;34.10;61.30;;;;;;4973214;28;20585;-77
2021/09/27 10:15:15;;;;;;;16.13;15.53;;;34.10;62.00;;;;;;4974260;28;20459;-74
2021/09/27 10:17:42;;;;;;;16.53;15.83;;;34.40;60.90;;;;;;4974142;28;20460;-76
2021/09/27 10:20:16;;;;;;;16.50;15.67;;;34.50;61.30;;;;;;4974184;28;20456;-76
2021/09/27 10:22:55;;;;;;;15.60;14.90;;;34.80;58.60;;;;;;4974085;28;20452;-76
2021/09/27 10:25:29;;;;;;;16.30;15.60;;;35.00;58.90;;;;;;4974037;28;20460;-76
2021/09/27 10:27:58;;;;;;;17.37;16.63;;;35.30;58.80;;;;;;4973889;28;20960;-77
2021/09/27 10:30:35;;;;;;;17.30;16.50;;;34.90;59.00;;;;;;4973887;28;20460;-77
2021/09/27 10:33:15;;;;;;;15.80;15.00;;;34.40;59.50;;;;;;4973689;28;20860;-76
2021/09/27 10:35:50;;;;;;;17.00;16.10;;;32.50;63.60;;;;;;4973630;28;20554;-76
2021/09/27 10:38:25;;;;;;;16.93;16.13;;;31.30;67.50;;;;;;4971707;28;20965;-75
2021/09/27 10:40:53;;;;;;;16.60;15.90;;;30.70;70.10;;;;;;4973481;28;20466;-77
2021/09/27 10:43:23;;;;;;;16.57;15.97;;;32.10;67.90;;;;;;4974013;28;20817;-76
2021/09/27 10:45:55;;;;;;;16.10;15.50;;;32.60;66.00;;;;;;4974387;28;20452;-76
2021/09/27 10:48:23;;;;;;;17.37;16.37;;;33.70;62.20;;;;;;4973984;28;20514;-75
2021/09/27 10:50:55;;;;;;;15.83;15.20;;;34.30;60.90;;;;;;4974110;28;20458;-73
2021/09/27 10:53:34;;;;;;;17.13;16.50;;;35.30;59.30;;;;;;4974020;28;20538;-76
2021/09/27 10:56:07;;;;;;;17.77;17.07;;;36.70;56.30;;;;;;4973997;28;20552;-79
2021/09/27 10:58:43;;;;;;;17.67;17.00;;;36.90;54.70;;;;;;4973655;28;20976;-75
2021/09/27 11:01:13;;;;;;;17.40;16.60;;;36.10;55.20;;;;;;4973879;28;20462;-77
2021/09/27 11:03:45;;;;;;;16.20;15.40;;;36.50;55.00;;;;;;4973767;28;20455;-76
2021/09/27 11:06:26;;;;;;;16.57;15.97;;;36.20;55.60;;;;;;4973688;28;20459;-75
2021/09/27 11:09:00;;;;;;;16.40;15.67;;;36.20;54.30;;;;;;4973686;28;20472;-76
2021/09/27 11:11:41;;;;;;;15.97;15.27;;;35.60;55.80;;;;;;4971602;28;20727;-76
2021/09/27 11:14:24;;;;;;;16.57;15.67;;;34.20;56.40;;;;;;4972972;28;20488;-76
2021/09/27 11:17:15;;;;;;;17.33;16.63;;;34.20;57.60;;;;;;4973418;28;20467;-79
2021/09/27 11:19:44;;;;;;;17.10;16.47;;;34.80;56.40;;;;;;4973084;28;20817;-76
2021/09/27 11:22:41;;;;;;;15.97;15.37;;;34.90;56.30;;;;;;4972887;28;20444;-76
2021/09/27 11:25:33;;;;;;;15.43;14.83;;;35.50;53.90;;;;;;4963596;28;20930;-76
2021/09/27 11:28:15;;;;;;;15.70;15.20;;;36.10;52.30;;;;;;4973066;28;20825;-75
2021/09/27 11:30:46;;;;;;;15.80;15.20;;;34.90;54.10;;;;;;4972927;28;20447;-75
2021/09/27 11:33:44;;;;;;;15.30;14.70;;;35.20;53.90;;;;;;4972857;28;20903;-75
2021/09/27 11:36:26;;;;;;;14.93;14.33;;;34.10;54.00;;;;;;4973059;28;20456;-75
2021/09/27 11:39:23;;;;;;;15.30;14.70;;;34.50;54.00;;;;;;4973197;28;20463;-76
2021/09/27 11:42:12;;;;;;;14.93;14.13;;;33.50;53.40;;;;;;4973148;28;20818;-76
2021/09/27 11:44:53;;;;;;;15.40;14.40;;;31.80;55.80;;;;;;4973047;28;20879;-76
2021/09/27 11:47:30;;;;;;;16.20;15.40;;;31.30;57.40;;;;;;4973122;28;20451;-75
2021/09/27 11:50:03;;;;;;;16.23;15.13;;;30.10;60.10;;;;;;4972620;28;20455;-76
2021/09/27 11:52:45;;;;;;;14.90;14.03;;;29.40;61.10;;;;;;4972527;28;20530;-76
2021/09/27 11:55:17;;;;;;;14.20;13.60;;;28.80;63.50;;;;;;4972763;28;20856;-76
2021/09/27 11:57:50;;;;;;;14.40;13.80;;;28.90;63.80;;;;;;4972531;28;20514;-76
2021/09/27 12:00:21;;;;;;;13.67;13.07;;;28.50;65.20;;;;;;4972454;28;20455;-76
2021/09/27 12:02:58;;;;;;;14.00;13.50;;;28.10;67.20;;;;;;4972190;28;20487;-76
2021/09/27 12:05:34;;;;;;;14.93;14.20;;;28.30;67.20;;;;;;4972476;28;20552;-77
2021/09/27 12:08:05;;;;;;;14.77;13.97;;;28.30;67.00;;;;;;4971747;28;20459;-77
2021/09/27 12:10:40;;;;;;;13.70;13.03;;;28.10;68.00;;;;;;4971928;28;20479;-77
2021/09/27 12:13:16;;;;;;;14.50;13.60;;;28.30;68.20;;;;;;4972381;28;20553;-77
2021/09/27 12:15:46;;;;;;;14.03;13.33;;;28.30;67.50;;;;;;4972353;28;20459;-77
2021/09/27 12:18:35;;;;;;;14.40;13.73;;;28.00;67.70;;;;;;4972421;28;20526;-77
2021/09/27 12:21:05;;;;;;;14.43;13.83;;;28.00;68.70;;;;;;4972338;28;20530;-76
2021/09/27 12:23:41;;;;;;;15.03;14.40;;;28.40;68.50;;;;;;4972273;28;20451;-78
2021/09/27 12:26:08;;;;;;;14.83;14.23;;;28.60;67.80;;;;;;4972615;28;20466;-76
2021/09/27 12:28:36;;;;;;;15.47;14.70;;;29.10;66.80;;;;;;4972898;28;20447;-78
2021/09/27 12:31:03;;;;;;;13.50;13.00;;;29.20;67.20;;;;;;4972558;28;20467;-76
2021/09/27 12:33:31;;;;;;;14.67;13.97;;;29.00;66.60;;;;;;4972217;28;20494;-76
2021/09/27 12:36:05;;;;;;;14.80;14.20;;;28.90;67.10;;;;;;4976998;28;20478;-76
2021/09/27 12:38:32;;;;;;;14.50;13.90;;;29.00;66.80;;;;;;4976485;28;20456;-77
2021/09/27 12:41:00;;;;;;;15.10;14.50;;;28.70;67.60;;;;;;4976389;28;20447;-76
2021/09/27 12:43:30;;;;;;;14.10;13.40;;;28.40;69.20;;;;;;4976375;28;20454;-76
2021/09/27 12:46:02;;;;;;;13.83;13.33;;;28.20;68.80;;;;;;4976313;28;20475;-77
2021/09/27 12:48:33;;;;;;;14.50;13.90;;;29.00;68.50;;;;;;4976668;28;20455;-78
2021/09/27 12:51:04;;;;;;;13.57;13.07;;;29.20;66.50;;;;;;4976321;28;20459;-77
2021/09/27 12:53:37;;;;;;;13.70;13.20;;;28.60;67.80;;;;;;4976138;28;20479;-76
2021/09/27 12:56:05;;;;;;;14.60;14.00;;;28.50;68.60;;;;;;4976445;28;20554;-76
2021/09/27 12:58:35;;;;;;;13.77;13.27;;;28.40;69.40;;;;;;4976113;28;20455;-76
2021/09/27 13:01:05;;;;;;;14.67;14.07;;;28.10;69.70;;;;;;4975942;28;20451;-76
2021/09/27 13:03:33;;;;;;;13.57;13.07;;;27.90;69.90;;;;;;4975873;28;20455;-76
2021/09/27 13:06:10;;;;;;;13.20;12.70;;;27.80;70.60;;;;;;4975952;28;20570;-76
2021/09/27 13:08:44;;;;;;;14.90;14.30;;;27.60;71.50;;;;;;4975930;28;20482;-77
2021/09/27 13:11:22;;;;;;;14.40;13.90;;;27.10;73.70;;;;;;4975650;28;20491;-77
2021/09/27 13:14:00;;;;;;;14.60;13.97;;;27.20;73.90;;;;;;4975839;28;20997;-75
2021/09/27 13:16:33;;;;;;;14.40;13.60;;;27.30;73.90;;;;;;4975748;28;20455;-76
2021/09/27 13:18:59;;;;;;;13.67;13.17;;;27.30;74.70;;;;;;4975637;28;20450;-75
2021/09/27 13:21:29;;;;;;;13.13;12.60;;;27.30;75.00;;;;;;4975520;28;20775;-75
2021/09/27 13:24:01;;;;;;;13.57;13.07;;;27.50;74.60;;;;;;4975157;28;20455;-76
2021/09/27 13:26:33;;;;;;;13.47;12.97;;;27.30;75.20;;;;;;4975282;28;20518;-75
2021/09/27 13:29:02;;;;;;;13.73;13.23;;;27.40;76.00;;;;;;4975521;28;20950;-75
2021/09/27 13:31:34;;;;;;;13.10;12.60;;;27.40;75.60;;;;;;4975466;28;20858;-76
2021/09/27 13:34:03;;;;;;;13.90;12.90;;;26.80;77.00;;;;;;4975390;28;20889;-76
2021/09/27 13:36:40;;;;;;;13.70;13.10;;;26.20;79.30;;;;;;4975209;28;20875;-76
2021/09/27 13:39:10;;;;;;;13.93;13.23;;;25.70;81.80;;;;;;4975392;28;20477;-76
2021/09/27 13:41:50;;;;;;;13.80;13.00;;;25.60;83.50;;;;;;4975475;28;20531;-76
2021/09/27 13:44:32;;;;;;;14.47;13.63;;;25.70;83.10;;;;;;4975275;28;20452;-76
2021/09/27 13:47:00;;;;;;;14.33;13.73;;;25.70;83.80;;;;;;4975110;28;20475;-77
2021/09/27 13:49:27;;;;;;;14.07;13.57;;;25.70;83.80;;;;;;4975054;28;20451;-76
2021/09/27 13:51:54;;;;;;;13.17;12.67;;;25.60;84.30;;;;;;4975147;28;20463;-75
2021/09/27 13:54:21;;;;;;;14.23;13.63;;;25.60;85.30;;;;;;4975039;28;20841;-76
2021/09/27 13:56:48;;;;;;;14.40;13.80;;;25.70;86.50;;;;;;4974938;28;20946;-76
2021/09/27 13:59:14;;;;;;;14.50;13.70;;;25.40;87.30;;;;;;4974843;28;21074;-76
2021/09/27 14:01:41;;;;;;;12.70;12.10;;;25.50;86.30;;;;;;4974635;28;20465;-76
2021/09/27 14:04:09;;;;;;;15.07;14.17;;;25.50;87.60;;;;;;4974871;28;20556;-76
2021/09/27 14:06:36;;;;;;;15.20;14.50;;;25.60;87.70;;;;;;4975038;28;20452;-76
2021/09/27 14:09:03;;;;;;;14.57;13.83;;;25.50;89.00;;;;;;4974652;28;20526;-76
2021/09/27 14:11:31;;;;;;;14.47;13.53;;;25.50;89.40;;;;;;4973927;28;20483;-76
2021/09/27 14:13:58;;;;;;;14.60;13.90;;;25.80;88.80;;;;;;4986132;28;21012;-74
2021/09/27 14:16:25;;;;;;;15.40;14.70;;;26.10;88.10;;;;;;4984459;28;20447;-77
2021/09/27 14:18:52;;;;;;;15.90;15.00;;;26.20;86.80;;;;;;4993832;28;20450;-77
2021/09/27 14:21:22;;;;;;;15.00;14.10;;;26.30;86.50;;;;;;4978382;28;20456;-76
2021/09/27 14:23:49;;;;;;;15.27;14.57;;;26.40;85.90;;;;;;4974272;28;20970;-76
2021/09/27 14:26:16;;;;;;;15.00;14.40;;;26.50;86.20;;;;;;4974310;28;20456;-73
2021/09/27 14:28:43;;;;;;;14.40;13.80;;;26.70;86.10;;;;;;4980715;28;20455;-76
2021/09/27 14:31:10;;;;;;;14.90;14.30;;;26.70;85.90;;;;;;4993587;28;20490;-76
2021/09/27 14:33:38;;;;;;;15.17;14.47;;;26.90;84.80;;;;;;4993374;28;20494;-76
2021/09/27 14:36:06;;;;;;;15.13;14.43;;;26.90;83.90;;;;;;4993358;28;20505;-73
2021/09/27 14:38:35;;;;;;;14.40;13.80;;;27.10;83.80;;;;;;4992975;28;20446;-73
2021/09/27 14:41:01;;;;;;;13.70;13.20;;;27.10;84.00;;;;;;4993191;28;20458;-76
2021/09/27 14:43:29;;;;;;;14.93;14.00;;;26.90;84.00;;;;;;4992931;28;20454;-76
2021/09/27 14:45:56;;;;;;;14.33;13.83;;;26.50;85.40;;;;;;4985005;28;20840;-73
2021/09/27 14:48:24;;;;;;;15.07;14.27;;;26.50;85.50;;;;;;4973488;28;20455;-74
2021/09/27 14:50:52;;;;;;;14.03;13.13;;;26.50;86.30;;;;;;4973733;28;20812;-76
2021/09/27 14:53:21;;;;;;;14.90;14.30;;;26.70;86.00;;;;;;4973307;28;20491;-76
2021/09/27 14:55:50;;;;;;;14.53;13.93;;;26.80;85.20;;;;;;4973509;28;20463;-76
2021/09/27 14:58:19;;;;;;;14.70;14.10;;;26.90;84.80;;;;;;4973086;28;20977;-76
2021/09/27 15:00:47;;;;;;;14.90;13.90;;;27.00;85.10;;;;;;4972204;28;20459;-76
2021/09/27 15:03:14;;;;;;;14.77;14.13;;;26.90;85.50;;;;;;4973333;28;20451;-73
2021/09/27 15:05:42;;;;;;;14.70;14.10;;;27.00;85.80;;;;;;4973198;28;21258;-73
2021/09/27 15:08:09;;;;;;;14.10;13.50;;;26.90;86.10;;;;;;4973324;28;20456;-76
2021/09/27 15:10:37;;;;;;;15.60;14.90;;;26.60;85.40;;;;;;4973132;28;20574;-76
2021/09/27 15:13:06;;;;;;;14.53;13.60;;;26.60;85.20;;;;;;4973000;28;20456;-76
2021/09/27 15:15:34;;;;;;;16.40;15.40;;;26.50;85.90;;;;;;4973306;28;20517;-73
2021/09/27 15:18:00;;;;;;;14.87;14.17;;;26.40;86.30;;;;;;4972917;28;20460;-77
2021/09/27 15:20:28;;;;;;;14.10;13.50;;;26.40;86.60;;;;;;4984087;28;20454;-75
2021/09/27 15:23:03;;;;;;;14.87;14.17;;;26.30;86.10;;;;;;4992260;28;20454;-75
2021/09/27 15:25:38;;;;;;;14.90;14.20;;;26.20;86.50;;;;;;4992227;28;20450;-76
2021/09/27 15:28:06;;;;;;;15.27;14.57;;;26.20;87.10;;;;;;4992404;28;20931;-75
2021/09/27 15:30:33;;;;;;;15.53;14.83;;;26.00;88.70;;;;;;4991952;28;20462;-74
2021/09/27 15:33:00;;;;;;;13.80;13.17;;;25.50;90.00;;;;;;4992290;28;20451;-74
2021/09/27 15:35:27;;;;;;;14.50;13.80;;;25.50;90.10;;;;;;4991982;28;20525;-74
2021/09/27 15:37:54;;;;;;;15.07;14.37;;;25.60;90.10;;;;;;4992259;28;20457;-74
2021/09/27 15:40:20;;;;;;;14.80;14.20;;;25.50;89.80;;;;;;4992145;28;20454;-74
2021/09/27 15:42:47;;;;;;;15.97;14.67;;;25.40;90.30;;;;;;4992043;28;20455;-75
2021/09/27 15:45:15;;;;;;;14.67;14.07;;;25.40;90.40;;;;;;4992179;28;20812;-74
2021/09/27 15:47:42;;;;;;;14.73;14.03;;;25.40;90.20;;;;;;4991956;28;20466;-74
2021/09/27 15:50:09;;;;;;;15.60;14.80;;;25.20;90.60;;;;;;4992138;28;20446;-74
2021/09/27 15:52:36;;;;;;;14.60;13.80;;;25.10;91.80;;;;;;4991807;28;20465;-73
2021/09/27 15:55:04;;;;;;;14.33;13.83;;;25.00;92.40;;;;;;4975547;28;20538;-74
2021/09/27 15:57:30;;;;;;;14.57;14.00;;;25.00;92.80;;;;;;4972260;28;20459;-74
2021/09/27 15:59:57;;;;;;;16.40;15.70;;;24.90;93.30;;;;;;4972420;28;20470;-74
2021/09/27 16:02:25;;;;;;;13.57;12.97;;;24.60;94.30;;;;;;4972356;28;20514;-75
2021/09/27 16:04:52;;;;;;;14.87;14.03;;;24.40;94.40;;;;;;4972315;28;20938;-75
2021/09/27 16:07:18;;;;;;;14.13;13.50;;;24.40;94.30;;;;;;4971992;28;20835;-74
2021/09/27 16:09:45;;;;;;;14.03;13.43;;;24.40;94.90;;;;;;4970895;28;20474;-74
2021/09/27 16:12:12;;;;;;;13.97;13.37;;;24.20;94.90;;;;;;4972061;28;20456;-74
2021/09/27 16:14:40;;;;;;;14.60;14.00;;;24.10;95.60;;;;;;4972069;28;20487;-74
2021/09/27 16:17:07;;;;;;;15.47;14.77;;;24.00;96.10;;;;;;4972225;28;20460;-74
2021/09/27 16:19:36;;;;;;;15.63;14.83;;;23.90;96.90;;;;;;4971901;28;20486;-74
2021/09/27 16:22:02;;;;;;;14.70;13.90;;;23.70;98.00;;;;;;4971954;28;20465;-74
2021/09/27 16:24:29;;;;;;;15.77;14.97;;;23.70;98.00;;;;;;4971976;28;20482;-74
2021/09/27 16:26:56;;;;;;;13.93;13.37;;;23.70;98.10;;;;;;4971904;28;20460;-73
2021/09/27 16:29:24;;;;;;;15.00;14.07;;;23.40;98.30;;;;;;4972037;28;20482;-74
2021/09/27 16:31:55;;;;;;;13.97;13.03;;;23.30;98.90;;;;;;4971808;28;20551;-74
2021/09/27 16:34:23;;;;;;;13.83;13.13;;;23.30;99.00;;;;;;4971815;28;20550;-74
2021/09/27 16:36:52;;;;;;;14.70;14.00;;;23.30;99.70;;;;;;4971955;28;20477;-74
2021/09/27 16:39:19;;;;;;;15.10;13.87;;;23.40;99.80;;;;;;4971821;28;20460;-73
2021/09/27 16:41:47;;;;;;;14.83;14.13;;;23.40;99.90;;;;;;4971666;28;20514;-74
2021/09/27 16:44:17;;;;;;;14.53;13.83;;;23.50;99.90;;;;;;4971774;28;20452;-74
2021/09/27 16:46:44;;;;;;;16.10;15.13;;;23.60;99.90;;;;;;4971874;28;20452;-74
2021/09/27 16:49:12;;;;;;;14.60;13.80;;;23.50;99.90;;;;;;4970050;28;20447;-74
2021/09/27 16:51:40;;;;;;;14.37;13.67;;;23.50;99.90;;;;;;4972106;28;20455;-73
2021/09/27 16:54:08;;;;;;;14.67;14.00;;;23.40;99.90;;;;;;4971838;28;20491;-74
2021/09/27 16:56:36;;;;;;;15.30;14.50;;;23.40;99.90;;;;;;4971755;28;20789;-73
2021/09/27 16:59:03;;;;;;;14.90;14.20;;;23.30;99.90;;;;;;4971095;28;20874;-74
2021/09/27 17:01:30;;;;;;;15.17;14.57;;;23.20;99.90;;;;;;4971447;28;20550;-74
2021/09/27 17:03:57;;;;;;;15.80;14.90;;;23.10;99.90;;;;;;4971408;28;20482;-75